createdAt,value
2022-08-11T00:00:15.023Z,0.00
2022-08-11T00:01:14.954Z,0.00
2022-08-11T00:02:15.403Z,0.00
2022-08-11T00:03:15.090Z,0.00
2022-08-11T00:04:14.935Z,0.00
2022-08-11T00:05:14.922Z,0.00
2022-08-11T00:06:14.922Z,0.00
2022-08-11T00:07:14.915Z,0.00
2022-08-11T00:08:14.895Z,0.00
2022-08-11T00:09:14.877Z,0.00
2022-08-11T00:10:14.867Z,0.00
2022-08-11T00:11:14.883Z,0.00
2022-08-11T00:12:14.875Z,0.00
2022-08-11T00:13:16.885Z,0.00
2022-08-11T00:14:14.826Z,0.00
2022-08-11T00:15:14.804Z,0.00
2022-08-11T00:16:14.814Z,0.00
2022-08-11T00:17:14.798Z,0.00
2022-08-11T00:18:14.787Z,0.00
2022-08-11T00:19:14.775Z,0.00
2022-08-11T00:20:16.950Z,0.00
2022-08-11T00:21:14.742Z,0.00
2022-08-11T00:22:14.747Z,0.00
2022-08-11T00:23:14.756Z,0.00
2022-08-11T00:24:14.719Z,0.00
2022-08-11T00:25:14.690Z,0.00
2022-08-11T00:26:14.706Z,0.00
2022-08-11T00:27:14.695Z,0.00
2022-08-11T00:28:14.658Z,0.00
2022-08-11T00:29:14.647Z,0.00
2022-08-11T00:30:14.660Z,0.00
2022-08-11T00:31:14.627Z,0.00
2022-08-11T00:32:14.619Z,0.00
2022-08-11T00:33:14.607Z,0.00
2022-08-11T00:34:14.625Z,0.00
2022-08-11T00:35:51.012Z,0.00
2022-08-11T00:36:15.584Z,0.00
2022-08-11T00:37:14.559Z,0.00
2022-08-11T00:38:14.551Z,0.00
2022-08-11T00:39:14.581Z,0.00
2022-08-11T00:40:14.532Z,0.00
2022-08-11T00:41:14.519Z,0.00
2022-08-11T00:42:14.530Z,0.00
2022-08-11T00:43:19.980Z,0.00
2022-08-11T00:44:15.504Z,0.00
2022-08-11T00:45:14.471Z,0.00
2022-08-11T00:46:14.520Z,0.00
2022-08-11T00:47:14.451Z,0.00
2022-08-11T00:48:14.451Z,0.00
2022-08-11T00:49:14.431Z,0.00
2022-08-11T00:50:14.432Z,0.00
2022-08-11T00:51:14.429Z,0.00
2022-08-11T00:52:14.413Z,0.00
2022-08-11T00:53:14.422Z,0.00
2022-08-11T00:54:14.375Z,0.00
2022-08-11T00:55:14.364Z,0.00
2022-08-11T00:56:14.351Z,0.00
2022-08-11T00:57:37.764Z,0.00
2022-08-11T00:58:15.354Z,0.00
2022-08-11T00:59:35.371Z,0.00
2022-08-11T01:00:15.315Z,0.00
2022-08-11T01:01:14.319Z,0.00
2022-08-11T01:02:14.295Z,0.00
2022-08-11T01:03:14.298Z,0.00
2022-08-11T01:04:14.275Z,0.00
2022-08-11T01:05:14.243Z,0.00
2022-08-11T01:06:14.274Z,0.00
2022-08-11T01:07:14.237Z,0.00
2022-08-11T01:08:14.280Z,0.00
2022-08-11T01:09:17.893Z,0.00
2022-08-11T01:10:15.204Z,0.00
2022-08-11T01:11:14.180Z,0.00
2022-08-11T01:12:14.187Z,0.00
2022-08-11T01:13:14.156Z,0.00
2022-08-11T01:14:14.188Z,0.00
2022-08-11T01:15:14.149Z,0.00
2022-08-11T01:16:14.157Z,0.00
2022-08-11T01:17:14.128Z,0.00
2022-08-11T01:18:14.100Z,0.00
2022-08-11T01:19:14.108Z,0.00
2022-08-11T01:20:45.493Z,0.00
2022-08-11T01:21:15.083Z,0.00
2022-08-11T01:22:14.069Z,0.00
2022-08-11T01:23:15.916Z,0.00
2022-08-11T01:24:14.068Z,0.00
2022-08-11T01:25:14.019Z,0.00
2022-08-11T01:26:14.027Z,0.00
2022-08-11T01:27:18.804Z,0.00
2022-08-11T01:28:14.999Z,0.00
2022-08-11T01:29:14.101Z,0.00
2022-08-11T01:30:13.989Z,0.00
2022-08-11T01:31:13.959Z,0.00
2022-08-11T01:32:13.955Z,0.00
2022-08-11T01:33:13.942Z,0.00
2022-08-11T01:34:13.937Z,0.00
2022-08-11T01:35:13.931Z,0.00
2022-08-11T01:36:13.911Z,0.00
2022-08-11T01:37:13.888Z,0.00
2022-08-11T01:38:13.901Z,0.00
2022-08-11T01:39:13.893Z,0.00
2022-08-11T01:40:13.941Z,0.00
2022-08-11T01:41:13.839Z,0.00
2022-08-11T01:42:13.870Z,0.00
2022-08-11T01:43:13.843Z,0.00
2022-08-11T01:44:13.835Z,0.00
2022-08-11T01:45:13.805Z,0.00
2022-08-11T01:46:13.811Z,0.00
2022-08-11T01:47:13.784Z,0.00
2022-08-11T01:48:13.792Z,0.00
2022-08-11T01:50:07.248Z,0.00
2022-08-11T01:50:14.791Z,0.00
2022-08-11T01:51:17.315Z,0.00
2022-08-11T01:52:13.732Z,0.00
2022-08-11T01:53:13.716Z,0.00
2022-08-11T01:54:13.726Z,0.00
2022-08-11T01:55:13.713Z,0.00
2022-08-11T01:56:13.684Z,0.00
2022-08-11T01:57:13.675Z,0.00
2022-08-11T01:58:13.663Z,0.00
2022-08-11T01:59:13.663Z,0.00
2022-08-11T02:00:13.656Z,0.00
2022-08-11T02:01:13.671Z,0.00
2022-08-11T02:02:21.571Z,0.00
2022-08-11T02:03:14.603Z,0.00
2022-08-11T02:04:13.599Z,0.00
2022-08-11T02:05:13.584Z,0.00
2022-08-11T02:06:13.606Z,0.00
2022-08-11T02:07:13.585Z,0.00
2022-08-11T02:08:13.568Z,0.00
2022-08-11T02:09:13.536Z,0.00
2022-08-11T02:10:13.636Z,0.00
2022-08-11T02:11:14.083Z,0.00
2022-08-11T02:12:13.525Z,0.00
2022-08-11T02:13:13.483Z,0.00
2022-08-11T02:14:13.504Z,0.00
2022-08-11T02:15:13.456Z,0.00
2022-08-11T02:16:13.468Z,0.00
2022-08-11T02:17:13.468Z,0.00
2022-08-11T02:18:13.436Z,0.00
2022-08-11T02:19:13.431Z,0.00
2022-08-11T02:20:13.439Z,0.00
2022-08-11T02:21:14.096Z,0.00
2022-08-11T02:22:13.440Z,0.00
2022-08-11T02:23:13.376Z,0.00
2022-08-11T02:24:14.388Z,0.00
2022-08-11T02:25:13.348Z,0.00
2022-08-11T02:26:13.369Z,0.00
2022-08-11T02:27:13.348Z,0.00
2022-08-11T02:28:13.340Z,0.00
2022-08-11T02:29:13.320Z,0.00
2022-08-11T02:30:13.308Z,0.00
2022-08-11T02:31:15.542Z,0.00
2022-08-11T02:32:25.250Z,0.00
2022-08-11T02:33:14.300Z,0.00
2022-08-11T02:34:13.293Z,0.00
2022-08-11T02:35:13.345Z,0.00
2022-08-11T02:36:13.228Z,0.00
2022-08-11T02:37:13.241Z,0.00
2022-08-11T02:38:13.242Z,0.00
2022-08-11T02:39:13.231Z,0.00
2022-08-11T02:40:13.182Z,0.00
2022-08-11T02:41:13.273Z,0.00
2022-08-11T02:42:34.907Z,0.00
2022-08-11T02:43:14.192Z,0.00
2022-08-11T02:44:13.156Z,0.00
2022-08-11T02:45:13.141Z,0.00
2022-08-11T02:46:17.960Z,0.00
2022-08-11T02:47:14.141Z,0.00
2022-08-11T02:48:13.141Z,0.00
2022-08-11T02:49:13.089Z,0.00
2022-08-11T02:50:13.081Z,0.00
2022-08-11T02:51:13.074Z,0.00
2022-08-11T02:52:13.053Z,0.00
2022-08-11T02:53:13.063Z,0.00
2022-08-11T02:54:13.016Z,0.00
2022-08-11T02:55:44.624Z,0.00
2022-08-11T02:56:14.013Z,0.00
2022-08-11T02:57:13.013Z,0.00
2022-08-11T02:58:12.984Z,0.00
2022-08-11T02:59:12.994Z,0.00
2022-08-11T03:00:12.956Z,0.00
2022-08-11T03:01:13.029Z,0.00
2022-08-11T03:02:13.025Z,0.00
2022-08-11T03:03:12.952Z,0.00
2022-08-11T03:04:12.937Z,0.00
2022-08-11T03:05:12.905Z,0.00
2022-08-11T03:06:12.898Z,0.00
2022-08-11T03:07:28.960Z,0.00
2022-08-11T03:08:13.868Z,0.00
2022-08-11T03:09:12.897Z,0.00
2022-08-11T03:10:12.860Z,0.00
2022-08-11T03:11:12.852Z,0.00
2022-08-11T03:12:12.825Z,0.00
2022-08-11T03:13:15.677Z,0.00
2022-08-11T03:14:12.812Z,0.00
2022-08-11T03:15:12.816Z,0.00
2022-08-11T03:16:12.785Z,0.00
2022-08-11T03:17:12.805Z,0.00
2022-08-11T03:18:12.771Z,0.00
2022-08-11T03:19:12.776Z,0.00
2022-08-11T03:20:12.729Z,0.00
2022-08-11T03:21:12.728Z,0.00
2022-08-11T03:22:12.717Z,0.00
2022-08-11T03:23:19.512Z,0.00
2022-08-11T03:24:13.722Z,0.00
2022-08-11T03:25:13.198Z,0.00
2022-08-11T03:26:12.669Z,0.00
2022-08-11T03:27:12.693Z,0.00
2022-08-11T03:28:12.637Z,0.00
2022-08-11T03:29:12.670Z,0.00
2022-08-11T03:30:13.631Z,0.00
2022-08-11T03:31:12.630Z,0.00
2022-08-11T03:32:12.608Z,0.00
2022-08-11T03:33:12.601Z,0.00
2022-08-11T03:34:12.589Z,0.00
2022-08-11T03:35:21.400Z,0.00
2022-08-11T03:36:13.550Z,4.00
2022-08-11T03:37:16.648Z,4.00
2022-08-11T03:38:12.529Z,4.00
2022-08-11T03:39:12.552Z,0.00
2022-08-11T03:40:12.510Z,4.00
2022-08-11T03:42:02.563Z,4.00
2022-08-11T03:42:13.498Z,0.00
2022-08-11T03:43:12.489Z,4.00
2022-08-11T03:44:12.462Z,4.00
2022-08-11T03:45:12.481Z,4.00
2022-08-11T03:46:12.442Z,8.00
2022-08-11T03:47:12.434Z,4.00
2022-08-11T03:48:12.422Z,8.00
2022-08-11T03:49:12.453Z,8.00
2022-08-11T03:50:12.403Z,8.00
2022-08-11T03:51:12.402Z,8.00
2022-08-11T03:52:12.386Z,8.00
2022-08-11T03:53:12.373Z,12.00
2022-08-11T03:54:12.362Z,12.00
2022-08-11T03:55:12.370Z,16.00
2022-08-11T03:56:12.330Z,20.00
2022-08-11T03:57:12.337Z,20.00
2022-08-11T03:58:12.314Z,24.00
2022-08-11T03:59:12.295Z,24.00
2022-08-11T04:00:12.306Z,28.00
2022-08-11T04:01:12.309Z,32.00
2022-08-11T04:02:12.287Z,32.00
2022-08-11T04:03:12.274Z,40.00
2022-08-11T04:04:12.239Z,44.00
2022-08-11T04:05:12.270Z,44.00
2022-08-11T04:06:12.235Z,48.00
2022-08-11T04:07:17.453Z,56.00
2022-08-11T04:08:13.202Z,56.00
2022-08-11T04:09:12.186Z,64.00
2022-08-11T04:10:12.212Z,64.00
2022-08-11T04:11:12.166Z,72.00
2022-08-11T04:12:34.702Z,76.00
2022-08-11T04:13:13.157Z,84.00
2022-08-11T04:14:12.115Z,88.00
2022-08-11T04:15:12.157Z,92.00
2022-08-11T04:16:12.928Z,100.00
2022-08-11T04:17:12.117Z,104.00
2022-08-11T04:18:12.097Z,112.00
2022-08-11T04:19:12.097Z,116.00
2022-08-11T04:20:12.078Z,124.00
2022-08-11T04:21:12.058Z,132.00
2022-08-11T04:22:12.030Z,136.00
2022-08-11T04:23:12.109Z,144.00
2022-08-11T04:24:38.664Z,148.00
2022-08-11T04:25:13.016Z,156.00
2022-08-11T04:26:18.866Z,164.00
2022-08-11T04:27:14.207Z,168.00
2022-08-11T04:28:18.895Z,176.00
2022-08-11T04:29:12.995Z,184.00
2022-08-11T04:30:12.428Z,192.00
2022-08-11T04:31:12.034Z,196.00
2022-08-11T04:32:11.950Z,204.00
2022-08-11T04:33:11.938Z,208.00
2022-08-11T04:34:11.909Z,216.00
2022-08-11T04:35:11.897Z,224.00
2022-08-11T04:36:11.890Z,228.00
2022-08-11T04:37:11.870Z,236.00
2022-08-11T04:38:11.901Z,244.00
2022-08-11T04:39:11.924Z,248.00
2022-08-11T04:40:11.842Z,256.00
2022-08-11T04:41:11.862Z,260.00
2022-08-11T04:42:11.809Z,268.00
2022-08-11T04:43:11.845Z,276.00
2022-08-11T04:44:11.783Z,280.00
2022-08-11T04:45:11.784Z,288.00
2022-08-11T04:46:11.784Z,292.00
2022-08-11T04:47:11.790Z,300.00
2022-08-11T04:48:11.742Z,304.00
2022-08-11T04:49:11.750Z,312.00
2022-08-11T04:50:11.722Z,316.00
2022-08-11T04:51:17.534Z,320.00
2022-08-11T04:52:12.709Z,328.00
2022-08-11T04:53:11.713Z,332.00
2022-08-11T04:54:11.687Z,340.00
2022-08-11T04:55:11.684Z,344.00
2022-08-11T04:56:11.663Z,352.00
2022-08-11T04:57:11.655Z,352.00
2022-08-11T04:58:11.642Z,360.00
2022-08-11T04:59:11.634Z,364.00
2022-08-11T05:00:11.619Z,368.00
2022-08-11T05:01:11.665Z,376.00
2022-08-11T05:02:17.019Z,380.00
2022-08-11T05:03:12.585Z,384.00
2022-08-11T05:04:11.574Z,388.00
2022-08-11T05:05:11.588Z,396.00
2022-08-11T05:06:11.560Z,396.00
2022-08-11T05:07:11.567Z,404.00
2022-08-11T05:08:11.514Z,412.00
2022-08-11T05:09:11.515Z,412.00
2022-08-11T05:10:11.506Z,416.00
2022-08-11T05:11:11.508Z,424.00
2022-08-11T05:12:11.493Z,428.00
2022-08-11T05:13:11.473Z,432.00
2022-08-11T05:14:11.454Z,436.00
2022-08-11T05:15:11.466Z,440.00
2022-08-11T05:16:11.450Z,440.00
2022-08-11T05:17:11.474Z,448.00
2022-08-11T05:18:11.418Z,452.00
2022-08-11T05:19:11.407Z,456.00
2022-08-11T05:20:11.386Z,460.00
2022-08-11T05:21:11.378Z,464.00
2022-08-11T05:22:11.378Z,468.00
2022-08-11T05:23:11.370Z,468.00
2022-08-11T05:24:11.347Z,476.00
2022-08-11T05:25:11.346Z,480.00
2022-08-11T05:26:46.313Z,480.00
2022-08-11T05:27:13.903Z,488.00
2022-08-11T05:28:11.306Z,492.00
2022-08-11T05:29:20.248Z,500.00
2022-08-11T05:30:12.279Z,504.00
2022-08-11T05:31:11.287Z,508.00
2022-08-11T05:32:11.300Z,508.00
2022-08-11T05:33:11.292Z,516.00
2022-08-11T05:34:11.230Z,520.00
2022-08-11T05:35:11.258Z,524.00
2022-08-11T05:36:12.215Z,524.00
2022-08-11T05:37:26.313Z,532.00
2022-08-11T05:38:12.180Z,536.00
2022-08-11T05:39:11.271Z,540.00
2022-08-11T05:40:11.250Z,548.00
2022-08-11T05:41:11.159Z,552.00
2022-08-11T05:42:11.150Z,556.00
2022-08-11T05:43:12.142Z,560.00
2022-08-11T05:44:19.598Z,564.00
2022-08-11T05:45:15.430Z,568.00
2022-08-11T05:46:13.231Z,572.00
2022-08-11T05:47:11.144Z,576.00
2022-08-11T05:48:11.077Z,580.00
2022-08-11T05:49:11.084Z,584.00
2022-08-11T05:50:13.533Z,588.00
2022-08-11T05:51:11.044Z,588.00
2022-08-11T05:52:12.632Z,596.00
2022-08-11T05:53:12.115Z,596.00
2022-08-11T05:54:28.278Z,600.00
2022-08-11T05:55:12.024Z,600.00
2022-08-11T05:56:10.983Z,608.00
2022-08-11T05:57:10.983Z,608.00
2022-08-11T05:58:11.980Z,612.00
2022-08-11T05:59:10.996Z,616.00
2022-08-11T06:00:10.945Z,620.00
2022-08-11T06:01:10.981Z,624.00
2022-08-11T06:02:10.923Z,624.00
2022-08-11T06:03:10.966Z,628.00
2022-08-11T06:04:10.884Z,632.00
2022-08-11T06:05:10.884Z,632.00
2022-08-11T06:06:10.884Z,636.00
2022-08-11T06:07:10.887Z,640.00
2022-08-11T06:08:10.879Z,644.00
2022-08-11T06:09:10.871Z,648.00
2022-08-11T06:10:10.835Z,652.00
2022-08-11T06:11:10.823Z,656.00
2022-08-11T06:12:10.802Z,660.00
2022-08-11T06:13:10.839Z,660.00
2022-08-11T06:14:10.805Z,664.00
2022-08-11T06:15:10.776Z,668.00
2022-08-11T06:16:10.759Z,672.00
2022-08-11T06:17:10.763Z,672.00
2022-08-11T06:18:10.780Z,676.00
2022-08-11T06:19:10.845Z,676.00
2022-08-11T06:20:10.715Z,680.00
2022-08-11T06:21:10.717Z,680.00
2022-08-11T06:22:10.696Z,684.00
2022-08-11T06:23:10.733Z,688.00
2022-08-11T06:24:10.676Z,692.00
2022-08-11T06:25:10.675Z,692.00
2022-08-11T06:26:10.907Z,696.00
2022-08-11T06:27:13.432Z,696.00
2022-08-11T06:28:10.656Z,700.00
2022-08-11T06:29:10.640Z,704.00
2022-08-11T06:30:10.608Z,704.00
2022-08-11T06:31:10.600Z,708.00
2022-08-11T06:32:10.579Z,708.00
2022-08-11T06:33:10.579Z,712.00
2022-08-11T06:34:10.579Z,712.00
2022-08-11T06:35:10.580Z,716.00
2022-08-11T06:36:10.552Z,716.00
2022-08-11T06:37:10.540Z,720.00
2022-08-11T06:38:10.512Z,724.00
2022-08-11T06:39:10.730Z,720.00
2022-08-11T06:40:10.502Z,724.00
2022-08-11T06:41:10.514Z,728.00
2022-08-11T06:42:10.479Z,728.00
2022-08-11T06:43:10.496Z,732.00
2022-08-11T06:44:10.462Z,732.00
2022-08-11T06:45:10.448Z,736.00
2022-08-11T06:46:10.433Z,736.00
2022-08-11T06:47:10.431Z,740.00
2022-08-11T06:48:10.428Z,736.00
2022-08-11T06:49:10.412Z,740.00
2022-08-11T06:50:10.391Z,740.00
2022-08-11T06:51:10.372Z,744.00
2022-08-11T06:52:34.073Z,744.00
2022-08-11T06:53:11.353Z,744.00
2022-08-11T06:54:10.369Z,744.00
2022-08-11T06:55:55.941Z,748.00
2022-08-11T06:56:11.332Z,748.00
2022-08-11T06:57:29.245Z,752.00
2022-08-11T06:58:11.304Z,752.00
2022-08-11T06:59:10.300Z,752.00
2022-08-11T07:00:10.284Z,756.00
2022-08-11T07:01:10.338Z,760.00
2022-08-11T07:02:10.264Z,764.00
2022-08-11T07:03:10.245Z,764.00
2022-08-11T07:04:10.276Z,768.00
2022-08-11T07:05:10.215Z,764.00
2022-08-11T07:06:10.229Z,772.00
2022-08-11T07:07:10.196Z,772.00
2022-08-11T07:08:33.268Z,776.00
2022-08-11T07:09:11.167Z,776.00
2022-08-11T07:10:10.164Z,776.00
2022-08-11T07:11:10.167Z,780.00
2022-08-11T07:12:10.144Z,780.00
2022-08-11T07:13:10.136Z,784.00
2022-08-11T07:14:11.129Z,784.00
2022-08-11T07:15:10.118Z,784.00
2022-08-11T07:16:12.167Z,788.00
2022-08-11T07:17:10.100Z,792.00
2022-08-11T07:18:10.090Z,796.00
2022-08-11T07:19:10.118Z,796.00
2022-08-11T07:20:11.091Z,800.00
2022-08-11T07:22:00.282Z,800.00
2022-08-11T07:22:11.056Z,804.00
2022-08-11T07:23:10.041Z,808.00
2022-08-11T07:24:10.024Z,808.00
2022-08-11T07:25:10.008Z,812.00
2022-08-11T07:26:10.001Z,816.00
2022-08-11T07:27:09.989Z,816.00
2022-08-11T07:28:09.968Z,820.00
2022-08-11T07:29:09.962Z,820.00
2022-08-11T07:30:09.948Z,824.00
2022-08-11T07:31:09.936Z,828.00
2022-08-11T07:32:09.941Z,832.00
2022-08-11T07:33:09.908Z,836.00
2022-08-11T07:34:12.188Z,840.00
2022-08-11T07:35:10.973Z,840.00
2022-08-11T07:36:09.883Z,848.00
2022-08-11T07:37:09.882Z,848.00
2022-08-11T07:38:09.872Z,848.00
2022-08-11T07:39:09.893Z,852.00
2022-08-11T07:40:09.841Z,852.00
2022-08-11T07:41:09.821Z,860.00
2022-08-11T07:42:09.832Z,864.00
2022-08-11T07:43:09.814Z,868.00
2022-08-11T07:44:09.797Z,872.00
2022-08-11T07:45:09.774Z,876.00
2022-08-11T07:46:09.777Z,884.00
2022-08-11T07:47:09.793Z,888.00
2022-08-11T07:48:09.742Z,892.00
2022-08-11T07:49:09.741Z,900.00
2022-08-11T07:50:09.733Z,908.00
2022-08-11T07:51:09.713Z,912.00
2022-08-11T07:52:09.712Z,920.00
2022-08-11T07:53:09.718Z,932.00
2022-08-11T07:54:16.331Z,936.00
2022-08-11T07:55:10.653Z,940.00
2022-08-11T07:56:09.674Z,948.00
2022-08-11T07:57:47.354Z,956.00
2022-08-11T07:58:19.397Z,964.00
2022-08-11T07:59:10.617Z,968.00
2022-08-11T08:00:10.171Z,980.00
2022-08-11T08:01:09.858Z,984.00
2022-08-11T08:02:09.649Z,996.00
2022-08-11T08:03:09.577Z,1004.00
2022-08-11T08:04:09.607Z,1016.00
2022-08-11T08:05:09.557Z,1020.00
2022-08-11T08:06:35.532Z,1032.00
2022-08-11T08:07:10.537Z,1040.00
2022-08-11T08:08:09.544Z,1048.00
2022-08-11T08:09:09.770Z,1056.00
2022-08-11T08:10:09.509Z,1060.00
2022-08-11T08:11:09.490Z,1068.00
2022-08-11T08:12:09.488Z,1076.00
2022-08-11T08:13:09.478Z,1080.00
2022-08-11T08:14:09.481Z,1084.00
2022-08-11T08:15:09.450Z,1092.00
2022-08-11T08:16:09.449Z,1100.00
2022-08-11T08:17:09.430Z,1108.00
2022-08-11T08:18:25.930Z,1116.00
2022-08-11T08:19:10.413Z,1124.00
2022-08-11T08:20:09.403Z,1132.00
2022-08-11T08:21:09.389Z,1140.00
2022-08-11T08:22:38.625Z,1164.00
2022-08-11T08:23:10.374Z,1176.00
2022-08-11T08:24:09.381Z,1180.00
2022-08-11T08:25:09.330Z,1180.00
2022-08-11T08:26:16.694Z,1188.00
2022-08-11T08:27:10.314Z,1196.00
2022-08-11T08:28:09.313Z,1200.00
2022-08-11T08:29:09.302Z,1204.00
2022-08-11T08:30:09.322Z,1212.00
2022-08-11T08:31:09.261Z,1216.00
2022-08-11T08:32:09.283Z,1220.00
2022-08-11T08:33:09.254Z,1232.00
2022-08-11T08:34:09.262Z,1236.00
2022-08-11T08:35:09.241Z,1248.00
2022-08-11T08:36:09.246Z,1256.00
2022-08-11T08:37:15.780Z,1272.00
2022-08-11T08:38:10.207Z,1284.00
2022-08-11T08:39:09.323Z,1296.00
2022-08-11T08:40:09.194Z,1308.00
2022-08-11T08:41:09.174Z,1328.00
2022-08-11T08:42:09.165Z,1348.00
2022-08-11T08:43:09.148Z,1360.00
2022-08-11T08:44:35.226Z,1368.00
2022-08-11T08:45:10.134Z,1384.00
2022-08-11T08:46:09.126Z,1388.00
2022-08-11T08:47:09.103Z,1388.00
2022-08-11T08:48:09.101Z,1392.00
2022-08-11T08:49:09.086Z,1388.00
2022-08-11T08:50:09.079Z,1388.00
2022-08-11T08:51:11.004Z,1384.00
2022-08-11T08:52:27.927Z,1376.00
2022-08-11T08:53:10.038Z,1364.00
2022-08-11T08:54:09.030Z,1356.00
2022-08-11T08:55:09.018Z,1352.00
2022-08-11T08:56:09.011Z,1356.00
2022-08-11T08:57:09.008Z,1364.00
2022-08-11T08:58:08.997Z,1368.00
2022-08-11T08:59:08.991Z,1376.00
2022-08-11T09:00:09.021Z,1380.00
2022-08-11T09:01:09.011Z,1388.00
2022-08-11T09:02:08.965Z,1392.00
2022-08-11T09:03:38.210Z,1400.00
2022-08-11T09:04:12.325Z,1400.00
2022-08-11T09:05:08.903Z,1404.00
2022-08-11T09:06:08.911Z,1412.00
2022-08-11T09:07:08.884Z,1416.00
2022-08-11T09:08:08.871Z,1420.00
2022-08-11T09:09:08.854Z,1424.00
2022-08-11T09:10:08.863Z,1424.00
2022-08-11T09:11:13.422Z,1424.00
2022-08-11T09:12:09.871Z,1428.00
2022-08-11T09:13:08.814Z,1436.00
2022-08-11T09:14:14.349Z,1440.00
2022-08-11T09:15:09.810Z,1444.00
2022-08-11T09:16:08.794Z,1448.00
2022-08-11T09:17:08.766Z,1452.00
2022-08-11T09:18:08.788Z,1456.00
2022-08-11T09:19:08.768Z,1460.00
2022-08-11T09:20:08.749Z,1464.00
2022-08-11T09:21:08.728Z,1468.00
2022-08-11T09:22:08.726Z,1476.00
2022-08-11T09:24:14.952Z,1488.00
2022-08-11T09:25:09.719Z,1492.00
2022-08-11T09:26:08.687Z,1500.00
2022-08-11T09:27:08.732Z,1508.00
2022-08-11T09:28:08.919Z,1508.00
2022-08-11T09:29:08.651Z,1516.00
2022-08-11T09:30:08.638Z,1524.00
2022-08-11T09:31:08.631Z,1528.00
2022-08-11T09:32:08.618Z,1532.00
2022-08-11T09:33:08.618Z,1540.00
2022-08-11T09:34:08.612Z,1540.00
2022-08-11T09:35:08.584Z,1552.00
2022-08-11T09:36:08.571Z,1552.00
2022-08-11T09:37:08.558Z,1552.00
2022-08-11T09:38:08.566Z,1560.00
2022-08-11T09:39:08.593Z,1564.00
2022-08-11T09:40:08.554Z,1572.00
2022-08-11T09:41:08.511Z,1572.00
2022-08-11T09:42:11.350Z,1576.00
2022-08-11T09:43:09.490Z,1580.00
2022-08-11T09:44:08.511Z,1580.00
2022-08-11T09:45:08.480Z,1584.00
2022-08-11T09:46:08.502Z,1592.00
2022-08-11T09:47:08.451Z,1584.00
2022-08-11T09:48:08.455Z,1584.00
2022-08-11T09:49:08.469Z,1596.00
2022-08-11T09:50:08.436Z,1604.00
2022-08-11T09:51:08.408Z,1612.00
2022-08-11T09:52:08.406Z,1596.00
2022-08-11T09:53:35.900Z,1600.00
2022-08-11T09:54:09.388Z,1604.00
2022-08-11T09:55:08.387Z,1600.00
2022-08-11T09:56:08.369Z,1604.00
2022-08-11T09:57:08.355Z,1604.00
2022-08-11T09:58:08.351Z,1612.00
2022-08-11T09:59:08.335Z,1612.00
2022-08-11T10:00:12.602Z,1620.00
2022-08-11T10:01:09.352Z,1624.00
2022-08-11T10:02:08.327Z,1628.00
2022-08-11T10:03:08.271Z,1636.00
2022-08-11T10:04:08.288Z,1636.00
2022-08-11T10:05:08.330Z,1640.00
2022-08-11T10:06:08.409Z,1648.00
2022-08-11T10:07:08.251Z,1656.00
2022-08-11T10:08:08.240Z,1672.00
2022-08-11T10:09:08.219Z,1688.00
2022-08-11T10:10:08.213Z,1688.00
2022-08-11T10:11:08.223Z,1692.00
2022-08-11T10:12:08.212Z,1696.00
2022-08-11T10:14:30.157Z,1692.00
2022-08-11T10:14:32.797Z,1688.00
2022-08-11T10:15:09.154Z,1704.00
2022-08-11T10:16:15.626Z,1712.00
2022-08-11T10:17:09.143Z,1732.00
2022-08-11T10:18:08.142Z,1736.00
2022-08-11T10:19:08.115Z,1752.00
2022-08-11T10:20:08.115Z,1756.00
2022-08-11T10:21:08.095Z,1756.00
2022-08-11T10:22:08.103Z,1764.00
2022-08-11T10:23:08.092Z,1780.00
2022-08-11T10:24:08.076Z,1784.00
2022-08-11T10:25:08.044Z,1780.00
2022-08-11T10:26:08.065Z,1776.00
2022-08-11T10:27:08.067Z,1776.00
2022-08-11T10:28:30.740Z,1784.00
2022-08-11T10:29:13.352Z,1788.00
2022-08-11T10:30:08.020Z,1792.00
2022-08-11T10:31:12.629Z,1808.00
2022-08-11T10:32:08.988Z,1804.00
2022-08-11T10:33:07.968Z,1808.00
2022-08-11T10:34:08.032Z,1804.00
2022-08-11T10:35:07.956Z,1804.00
2022-08-11T10:36:16.387Z,1808.00
2022-08-11T10:37:08.940Z,1824.00
2022-08-11T10:38:10.085Z,1836.00
2022-08-11T10:39:07.946Z,1832.00
2022-08-11T10:40:07.911Z,1840.00
2022-08-11T10:41:07.881Z,1844.00
2022-08-11T10:42:12.195Z,1864.00
2022-08-11T10:43:08.851Z,1856.00
2022-08-11T10:44:07.855Z,1860.00
2022-08-11T10:45:07.844Z,1868.00
2022-08-11T10:46:07.831Z,1880.00
2022-08-11T10:47:07.832Z,1888.00
2022-08-11T10:48:10.942Z,1888.00
2022-08-11T10:49:08.796Z,1888.00
2022-08-11T10:50:07.792Z,1896.00
2022-08-11T10:51:07.823Z,1904.00
2022-08-11T10:52:07.775Z,1896.00
2022-08-11T10:53:07.763Z,1900.00
2022-08-11T10:54:11.542Z,1912.00
2022-08-11T10:55:07.735Z,1912.00
2022-08-11T10:56:07.743Z,1924.00
2022-08-11T10:57:07.796Z,1928.00
2022-08-11T10:58:07.715Z,1936.00
2022-08-11T10:59:07.695Z,1936.00
2022-08-11T11:00:07.695Z,1948.00
2022-08-11T11:01:07.737Z,1948.00
2022-08-11T11:02:07.688Z,1952.00
2022-08-11T11:03:23.790Z,1956.00
2022-08-11T11:04:08.636Z,1968.00
2022-08-11T11:05:07.639Z,1972.00
2022-08-11T11:06:28.481Z,1992.00
2022-08-11T11:07:08.619Z,1992.00
2022-08-11T11:08:07.621Z,2012.00
2022-08-11T11:09:07.599Z,2020.00
2022-08-11T11:10:07.573Z,2024.00
2022-08-11T11:11:07.575Z,2044.00
2022-08-11T11:12:07.548Z,2064.00
2022-08-11T11:13:07.568Z,2080.00
2022-08-11T11:14:07.541Z,2100.00
2022-08-11T11:15:08.358Z,2116.00
2022-08-11T11:16:08.520Z,2116.00
2022-08-11T11:17:07.512Z,2100.00
2022-08-11T11:18:07.570Z,2108.00
2022-08-11T11:19:07.499Z,2092.00
2022-08-11T11:20:07.491Z,2104.00
2022-08-11T11:21:07.487Z,2108.00
2022-08-11T11:22:07.456Z,2116.00
2022-08-11T11:23:07.464Z,2120.00
2022-08-11T11:24:07.444Z,2132.00
2022-08-11T11:25:07.424Z,2140.00
2022-08-11T11:26:07.442Z,2152.00
2022-08-11T11:27:07.398Z,2172.00
2022-08-11T11:28:07.384Z,2192.00
2022-08-11T11:29:07.399Z,2224.00
2022-08-11T11:30:07.370Z,2228.00
2022-08-11T11:31:07.356Z,2260.00
2022-08-11T11:32:08.308Z,2268.00
2022-08-11T11:33:07.366Z,2272.00
2022-08-11T11:34:12.922Z,2288.00
2022-08-11T11:35:08.329Z,2308.00
2022-08-11T11:36:07.297Z,2308.00
2022-08-11T11:37:07.288Z,2316.00
2022-08-11T11:38:09.378Z,2328.00
2022-08-11T11:39:08.311Z,2332.00
2022-08-11T11:40:07.274Z,2344.00
2022-08-11T11:41:07.260Z,2348.00
2022-08-11T11:42:07.232Z,2356.00
2022-08-11T11:43:07.240Z,2360.00
2022-08-11T11:44:07.209Z,2360.00
2022-08-11T11:45:07.232Z,2372.00
2022-08-11T11:46:07.193Z,2376.00
2022-08-11T11:47:07.200Z,2372.00
2022-08-11T11:48:07.200Z,2368.00
2022-08-11T11:49:07.213Z,2372.00
2022-08-11T11:50:08.183Z,2372.00
2022-08-11T11:51:07.150Z,2388.00
2022-08-11T11:52:07.144Z,2396.00
2022-08-11T11:53:07.130Z,2396.00
2022-08-11T11:54:07.104Z,2412.00
2022-08-11T11:55:07.104Z,2420.00
2022-08-11T11:56:07.113Z,2408.00
2022-08-11T11:57:07.104Z,2408.00
2022-08-11T11:58:07.064Z,2416.00
2022-08-11T11:59:07.072Z,2416.00
2022-08-11T12:00:07.066Z,2420.00
2022-08-11T12:01:07.045Z,2428.00
2022-08-11T12:02:11.870Z,2428.00
2022-08-11T12:03:08.070Z,2436.00
2022-08-11T12:04:07.020Z,2436.00
2022-08-11T12:05:07.008Z,2448.00
2022-08-11T12:06:07.019Z,2448.00
2022-08-11T12:07:07.009Z,2464.00
2022-08-11T12:08:13.141Z,2460.00
2022-08-11T12:09:07.969Z,2480.00
2022-08-11T12:10:06.962Z,2480.00
2022-08-11T12:11:06.961Z,2496.00
2022-08-11T12:12:06.931Z,2512.00
2022-08-11T12:13:06.922Z,2516.00
2022-08-11T12:14:10.310Z,2512.00
2022-08-11T12:15:06.908Z,2516.00
2022-08-11T12:16:34.896Z,2508.00
2022-08-11T12:17:07.881Z,2508.00
2022-08-11T12:18:06.861Z,2200.00
2022-08-11T12:19:06.889Z,2212.00
2022-08-11T12:20:06.845Z,2200.00
2022-08-11T12:21:07.862Z,2200.00
2022-08-11T12:22:06.845Z,2172.00
2022-08-11T12:23:06.845Z,2168.00
2022-08-11T12:24:06.802Z,2176.00
2022-08-11T12:25:06.794Z,2180.00
2022-08-11T12:27:16.330Z,2172.00
2022-08-11T12:28:07.757Z,2172.00
2022-08-11T12:29:06.758Z,2164.00
2022-08-11T12:30:06.749Z,2152.00
2022-08-11T12:31:06.753Z,2164.00
2022-08-11T12:32:06.720Z,2348.00
2022-08-11T12:33:06.718Z,2436.00
2022-08-11T12:34:06.685Z,2412.00
2022-08-11T12:35:06.690Z,2452.00
2022-08-11T12:36:06.680Z,2440.00
2022-08-11T12:37:07.330Z,2428.00